Evansville Dress Regional Ai, Indiana
Current Conditions -  °F | °C
As of 5:54 PM on Saturday 22 Nov 2014 (Local Time) from KEVV Reporting Station
Clear Clear  
Wind Chill: 59°   Ceiling: Unl
Heat Index: 59°   Visibility: 10mi
Dew Point: 38°   Wind: 7mph
Humidity: 46%   Direction: 170°S
Pressure: 30.04"   Gusts: NA
Location:  38.0153°N, 87.5343°W
Report Text: KEVV 222354Z 17006KT 10SM CLR 15/03 A3004 RMK AO2 SLP172 60000 T01500033 10178 20150 56016
Loading
Personal Weather Stations






























Interactive Weather Map New forecast layout! Learn more

10-Day Weather Forecast

Advertisements
Track Severe Weather on mobile